Roundup, MT (59072)

9:20 AM MDT on September 21, 2014 (GMT -0600)
RAWS HORSE THIEF MT US | Change Station
CLOSE
Current Station
Personal Weather Station
Location: Roundup, MT
Elevation: 3479 ft
Nearby Weather Stations

Elev 3479 ft 46.43 °N, 108.67 °W | Updated 41 minutes ago

Clear
Clear
48 °F
Feels Like 48 °F
N
0
Wind Variable Wind from North
Gusts 2.0 mph

Today
High -- | Low -- °F
--% Chance of Precip.
Yesterday
High -- | Low -- °F
Precip. -- in
6:59 AM 7:13 PM
Waning Crescent, 6% visible
Pressure 30.26 in
Visibility 10.0 miles
Clouds Clear
Windchill 48 °F
Dew Point 44 °F
Humidity 87%
Rainfall 0.00 in
Snow Depth 1 in , 1 in , 0 in
UV 1 out of 12
Pollen 5.00 out of 12
Air Quality Not available.
Flu Activity Not available.
METAR KBIL 211453Z 22005KT 10SM CLR 11/06 A3029 RMK AO2 SLP247 T01110056 50003

More Conditions Fewer Conditions

Pressure 30.26 in
Visibility 10.0 miles
Clouds Clear
Windchill 48 °F
Dew Point 44 °F
Humidity 87%
Rainfall 0.00 in
Snow Depth 1 in , 1 in , 0 in
UV 1 out of 12
Pollen 5.00 out of 12
Air Quality Not available.
Flu Activity Not available.
METAR KBIL 211453Z 22005KT 10SM CLR 11/06 A3029 RMK AO2 SLP247 T01110056 50003

More Conditions Fewer Conditions

10-Day Weather Forecast

Almanac

Astronomy

Sep. 21, 2014 Rise Set
Actual Time 6:59 AM MDT 7:13 PM MDT
Civil Twilight 6:29 AM MDT 7:43 PM MDT
Nautical Twilight 5:54 AM MDT 8:19 PM MDT
Astronomical Twilight 5:17 AM MDT 8:55 PM MDT
Moon 4:29 AM MDT 5:56 PM MDT
Length of Visible Light 13h 13m
Length of Day
12h 13m
Tomorrow will be 3m 16s shorter.
Waning Crescent, 6% of the Moon is Illuminated
Today
Waning Crescent
Sep 24
New
Oct 1
First Quarter
Oct 8
Full
Oct 15
Last Quarter

Today's Extremes

State Highs State Lows

Community

WunderPhotos

Upload Photos

1,755,166 photos uploaded!

Nearby

Snow Depth

Station Depth Elevation
Porcupine 1 in 6500 ft
Carrot Basin 1 in 9000 ft
Nez Perce Camp 0 in 5650 ft
Stringer Creek 0 in 6550 ft
Dupuyer Creek 0 in 5750 ft

Earthquake Activity

City Distance Mag. Time & Date
No recent earthquake activity has been reported nearby.
Minimum magnitude displayed is 2.5.

Coastal Water Temperatures

Place Temperature
No Stations Reporting

Nearby Weather Stations